createdAt,value
2022-11-29T00:00:19.634Z,91.05
2022-11-29T00:06:39.590Z,91.06
2022-11-29T00:13:02.622Z,91.17
2022-11-29T00:19:22.654Z,91.09
2022-11-29T00:25:45.605Z,91.12
2022-11-29T00:32:05.616Z,91.11
2022-11-29T00:38:28.605Z,91.14
2022-11-29T00:44:48.580Z,91.18
2022-11-29T00:51:11.641Z,91.19
2022-11-29T00:57:31.615Z,91.14
2022-11-29T01:03:54.597Z,91.19
2022-11-29T01:10:14.601Z,91.06
2022-11-29T01:16:37.715Z,91.2
2022-11-29T01:22:57.576Z,91.14
2022-11-29T01:29:20.569Z,91.25
2022-11-29T01:35:40.612Z,91.3
2022-11-29T01:42:03.590Z,91.16
2022-11-29T01:48:23.661Z,91.2
2022-11-29T01:54:46.867Z,91.23
2022-11-29T02:01:06.703Z,91.21
2022-11-29T02:07:29.689Z,91.13
2022-11-29T02:13:49.622Z,91.32
2022-11-29T02:20:12.590Z,91.28
2022-11-29T02:26:32.618Z,91.38
2022-11-29T02:32:55.617Z,91.31
2022-11-29T02:39:15.582Z,91.2
2022-11-29T02:45:38.636Z,91.33
2022-11-29T02:51:58.624Z,91.3
2022-11-29T02:58:22.592Z,91.45
2022-11-29T03:04:42.709Z,91.41
2022-11-29T03:11:05.651Z,91.53
2022-11-29T03:17:25.634Z,91.53
2022-11-29T03:23:48.631Z,91.67
2022-11-29T03:30:08.591Z,91.73
2022-11-29T03:36:31.635Z,91.72
2022-11-29T03:42:51.574Z,91.7
2022-11-29T03:49:14.717Z,91.66
2022-11-29T03:55:34.610Z,91.44
2022-11-29T04:01:57.604Z,91.63
2022-11-29T04:08:17.618Z,91.82
2022-11-29T04:14:40.625Z,92.03
2022-11-29T04:32:45.004Z,92.3
2022-11-29T04:39:04.580Z,92.38
2022-11-29T04:45:27.617Z,92.36
2022-11-29T04:51:47.621Z,92.38
2022-11-29T04:58:10.626Z,92.27
2022-11-29T05:04:30.567Z,92.28
2022-11-29T05:10:53.592Z,92.31
2022-11-29T05:17:13.863Z,92.28
2022-11-29T05:23:36.591Z,92.3
2022-11-29T05:29:56.631Z,92.29
2022-11-29T05:36:19.571Z,92.3
2022-11-29T05:42:39.567Z,92.25
2022-11-29T05:49:02.674Z,92.24
2022-11-29T05:55:22.581Z,92.22
2022-11-29T06:01:45.669Z,92.3
2022-11-29T06:08:05.610Z,92.41
2022-11-29T06:14:28.601Z,92.42
2022-11-29T06:20:48.568Z,92.62
2022-11-29T06:27:11.591Z,92.74
2022-11-29T06:33:31.575Z,92.96
2022-11-29T06:39:54.582Z,93.12
2022-11-29T06:46:14.711Z,93.22
2022-11-29T06:52:37.608Z,93.27
2022-11-29T06:58:57.585Z,93.32
2022-11-29T07:05:20.628Z,93.32
2022-11-29T07:11:40.580Z,93.32
2022-11-29T07:18:03.591Z,93.39
2022-11-29T07:24:23.698Z,93.4
2022-11-29T07:30:46.609Z,93.43
2022-11-29T07:37:06.606Z,93.43
2022-11-29T07:43:29.601Z,93.52
2022-11-29T07:49:49.583Z,93.58
2022-11-29T07:56:12.601Z,93.64
2022-11-29T08:02:32.652Z,93.73
2022-11-29T08:08:55.640Z,93.79
2022-11-29T08:15:15.599Z,93.81
2022-11-29T08:21:38.630Z,93.78
2022-11-29T08:27:58.604Z,93.78
2022-11-29T08:34:21.570Z,93.73
2022-11-29T08:40:41.636Z,93.61
2022-11-29T08:47:04.580Z,93.41
2022-11-29T08:53:24.619Z,93.22
2022-11-29T08:59:47.633Z,93.1
2022-11-29T09:06:12.145Z,92.83
2022-11-29T09:12:30.700Z,92.76
2022-11-29T09:18:51.998Z,92.66
2022-11-29T09:25:13.648Z,92.45
2022-11-29T09:31:33.741Z,92.28
2022-11-29T09:49:02.556Z,91.81
2022-11-29T09:55:22.567Z,91.67
2022-11-29T10:01:45.574Z,91.72
2022-11-29T10:08:05.620Z,91.32
2022-11-29T10:14:28.579Z,91.11
2022-11-29T10:20:49.654Z,90.27
2022-11-29T10:27:12.680Z,90.1
2022-11-29T10:33:32.648Z,89.62
2022-11-29T10:39:55.644Z,88.74
2022-11-29T10:46:15.635Z,88.29
2022-11-29T10:52:38.610Z,88.19
2022-11-29T10:58:58.586Z,87.26
2022-11-29T11:05:21.667Z,87.55
2022-11-29T11:11:42.608Z,86.71
2022-11-29T11:18:05.671Z,86.55
2022-11-29T11:24:25.618Z,86.33
2022-11-29T11:30:48.730Z,86.23
2022-11-29T11:37:08.581Z,87
2022-11-29T11:43:31.621Z,86.73
2022-11-29T11:49:51.597Z,86.35
2022-11-29T11:56:14.605Z,86.11
2022-11-29T12:02:34.719Z,86.32
2022-11-29T12:08:57.607Z,86.33
2022-11-29T12:15:17.602Z,86.39
2022-11-29T12:21:40.606Z,86.68
2022-11-29T12:28:00.632Z,87.06
2022-11-29T12:34:23.602Z,86.72
2022-11-29T12:40:43.910Z,86.71
2022-11-29T12:47:34.426Z,86.73
2022-11-29T12:53:27.602Z,86.11
2022-11-29T12:59:49.632Z,86.16
2022-11-29T13:06:09.680Z,86.36
2022-11-29T13:12:32.595Z,85.08
2022-11-29T13:18:52.631Z,85.35
2022-11-29T13:25:15.586Z,86.26
2022-11-29T13:31:35.618Z,85.91
2022-11-29T13:37:58.626Z,86.36
2022-11-29T13:44:18.574Z,86.07
2022-11-29T13:50:41.641Z,86.16
2022-11-29T13:57:01.650Z,86.08
2022-11-29T14:03:24.590Z,86.34
2022-11-29T14:09:44.578Z,86.34
2022-11-29T14:16:07.671Z,86.82
2022-11-29T14:22:27.647Z,86.81
2022-11-29T14:28:50.600Z,86.57
2022-11-29T14:35:10.614Z,86.83
2022-11-29T14:57:22.620Z,87.49
2022-11-29T15:03:45.623Z,87.85
2022-11-29T15:10:05.583Z,88.08
2022-11-29T15:16:28.633Z,88.45
2022-11-29T15:22:48.603Z,88.43
2022-11-29T15:29:11.578Z,88.64
2022-11-29T15:35:31.658Z,88.87
2022-11-29T15:41:54.589Z,88.94
2022-11-29T15:48:14.612Z,89.1
2022-11-29T15:54:37.610Z,89.2
2022-11-29T16:00:57.633Z,89.05
2022-11-29T16:07:20.613Z,89.36
2022-11-29T16:13:40.635Z,89.77
2022-11-29T16:20:03.621Z,90.02
2022-11-29T16:26:23.599Z,90.06
2022-11-29T16:32:46.895Z,89.5
2022-11-29T16:39:06.767Z,90.19
2022-11-29T16:45:29.631Z,90.07
2022-11-29T16:51:49.676Z,89.89
2022-11-29T16:58:12.610Z,90.04
2022-11-29T17:04:32.579Z,89.29
2022-11-29T17:10:55.610Z,88.91
2022-11-29T17:17:15.595Z,89
2022-11-29T17:23:38.623Z,89.22
2022-11-29T17:29:58.573Z,89.73
2022-11-29T17:36:21.591Z,89.18
2022-11-29T17:42:41.599Z,89.46
2022-11-29T17:49:04.622Z,89.03
2022-11-29T17:55:26.947Z,89.53
2022-11-29T18:01:47.737Z,89.17
2022-11-29T18:08:07.615Z,90.01
2022-11-29T18:14:30.590Z,90.45
2022-11-29T18:20:50.570Z,90.92
2022-11-29T18:27:13.626Z,91.06
2022-11-29T18:33:33.575Z,91.22
2022-11-29T18:39:56.565Z,91.3
2022-11-29T18:46:16.663Z,91.13
2022-11-29T18:52:40.845Z,91.1
2022-11-29T18:58:59.597Z,91.12
2022-11-29T19:05:22.585Z,91.09
2022-11-29T19:11:42.576Z,90.73
2022-11-29T19:18:05.612Z,90.91
2022-11-29T19:24:25.622Z,90.98
2022-11-29T19:30:48.633Z,91.21
2022-11-29T19:37:08.580Z,91.12
2022-11-29T19:43:31.625Z,91.31
2022-11-29T19:59:57.511Z,91.37
2022-11-29T20:06:17.533Z,91.43
2022-11-29T20:12:40.611Z,91.16
2022-11-29T20:19:00.621Z,90.92
2022-11-29T20:25:23.578Z,90.88
2022-11-29T20:31:49.390Z,90.79
2022-11-29T20:38:06.604Z,90.7
2022-11-29T20:44:26.619Z,90.77
2022-11-29T20:50:49.622Z,90.53
2022-11-29T20:57:09.622Z,90.85
2022-11-29T21:03:32.708Z,90.93
2022-11-29T21:09:54.382Z,90.97
2022-11-29T21:16:15.689Z,90.82
2022-11-29T21:22:35.578Z,90.99
2022-11-29T21:28:58.581Z,90.85
2022-11-29T21:35:18.691Z,90.99
2022-11-29T21:41:41.588Z,91.11
2022-11-29T21:48:01.634Z,91.13
2022-11-29T21:54:24.614Z,91.03
2022-11-29T22:00:44.587Z,91.17
2022-11-29T22:07:07.595Z,91.24
2022-11-29T22:13:27.608Z,91.13
2022-11-29T22:19:50.629Z,91.25
2022-11-29T22:26:10.595Z,91.19
2022-11-29T22:32:33.698Z,90.9
2022-11-29T22:38:53.585Z,91.1
2022-11-29T22:45:16.566Z,90.64
2022-11-29T22:51:36.663Z,90.93
2022-11-29T22:57:59.614Z,91.21
2022-11-29T23:20:57.583Z,91.2
2022-11-29T23:27:17.655Z,91.36
2022-11-29T23:33:40.549Z,91.61
2022-11-29T23:40:00.691Z,91.73
2022-11-29T23:46:23.591Z,91.92
2022-11-29T23:52:43.619Z,91.93
2022-11-29T23:59:06.687Z,92.06
